createdAt,value
2022-08-17T00:01:31.438Z,100206.94
2022-08-17T00:04:10.888Z,100206.69
2022-08-17T00:06:38.434Z,100193.47
2022-08-17T00:09:05.643Z,100198.56
2022-08-17T00:11:38.345Z,100202.09
2022-08-17T00:14:13.684Z,100200.72
2022-08-17T00:16:55.376Z,100204.75
2022-08-17T00:19:25.834Z,100199.88
2022-08-17T00:22:32.277Z,100202.56
2022-08-17T00:24:42.876Z,100191.84
2022-08-17T00:27:09.393Z,100195.22
2022-08-17T00:29:35.856Z,100188.28
2022-08-17T00:33:16.006Z,100189.38
2022-08-17T00:34:49.861Z,100199.09
2022-08-17T00:37:16.628Z,100191.59
2022-08-17T00:39:43.180Z,100198.56
2022-08-17T00:42:18.564Z,100194.47
2022-08-17T00:44:46.028Z,100198.81
2022-08-17T00:47:12.508Z,100194.97
2022-08-17T00:49:38.988Z,100187.81
2022-08-17T00:52:15.311Z,100185.59
2022-08-17T00:54:45.000Z,100180.13
2022-08-17T00:57:18.490Z,100187.03
2022-08-17T01:00:01.513Z,100178.31
2022-08-17T01:02:34.398Z,100178.19
2022-08-17T01:05:12.527Z,100181.38
2022-08-17T01:07:39.285Z,100177.22
2022-08-17T01:10:58.881Z,100179.03
2022-08-17T01:12:58.065Z,100183.78
2022-08-17T01:15:24.613Z,100182.78
2022-08-17T01:17:51.147Z,100177.47
2022-08-17T01:20:17.828Z,100181.19
2022-08-17T01:22:44.426Z,100180.34
2022-08-17T01:25:12.579Z,100178.78
2022-08-17T01:27:40.545Z,100186.03
2022-08-17T01:30:57.108Z,100186.38
2022-08-17T01:32:56.857Z,100185.66
2022-08-17T01:35:23.443Z,100192.28
2022-08-17T01:37:50.005Z,100193.88
2022-08-17T01:40:25.550Z,100177.00
2022-08-17T01:42:58.496Z,100183.53
2022-08-17T01:45:30.374Z,100189.97
2022-08-17T01:47:56.983Z,100189.78
2022-08-17T01:50:30.581Z,100186.47
2022-08-17T01:53:04.174Z,100191.31
2022-08-17T01:55:40.882Z,100192.44
2022-08-17T01:58:09.706Z,100185.41
2022-08-17T02:00:59.797Z,100189.25
2022-08-17T02:03:25.220Z,100187.06
2022-08-17T02:05:53.190Z,100191.41
2022-08-17T02:08:21.408Z,100185.84
2022-08-17T02:11:11.611Z,100187.06
2022-08-17T02:13:38.343Z,100190.16
2022-08-17T02:16:05.515Z,100187.69
2022-08-17T02:18:32.111Z,100183.03
2022-08-17T02:20:58.686Z,100185.69
2022-08-17T02:23:27.765Z,100185.25
2022-08-17T02:25:57.642Z,100181.75
2022-08-17T02:28:24.111Z,100187.63
2022-08-17T02:31:00.690Z,100178.91
2022-08-17T02:33:43.067Z,100189.38
2022-08-17T02:36:12.143Z,100179.97
2022-08-17T02:38:40.585Z,100176.81
2022-08-17T02:41:07.921Z,100174.22
2022-08-17T02:43:34.897Z,100178.94
2022-08-17T02:46:01.485Z,100177.22
2022-08-17T02:48:31.611Z,100178.81
2022-08-17T02:50:59.815Z,100169.25
2022-08-17T02:53:26.683Z,100171.06
2022-08-17T02:55:53.636Z,100175.97
2022-08-17T02:58:34.332Z,100176.38
2022-08-17T03:01:03.667Z,100172.03
2022-08-17T03:03:30.209Z,100179.91
2022-08-17T03:05:56.682Z,100170.13
2022-08-17T03:08:23.382Z,100171.72
2022-08-17T03:10:50.427Z,100174.50
2022-08-17T03:13:17.283Z,100180.66
2022-08-17T03:15:45.366Z,100173.00
2022-08-17T03:18:21.929Z,100173.13
2022-08-17T03:20:57.528Z,100169.69
2022-08-17T03:23:25.583Z,100170.56
2022-08-17T03:25:53.889Z,100167.81
2022-08-17T03:28:21.740Z,100168.97
2022-08-17T03:30:48.931Z,100175.16
2022-08-17T03:33:16.190Z,100177.81
2022-08-17T03:35:43.109Z,100176.00
2022-08-17T03:38:11.293Z,100168.88
2022-08-17T03:40:56.624Z,100172.56
2022-08-17T03:43:27.638Z,100163.66
2022-08-17T03:46:27.689Z,100165.88
2022-08-17T03:49:14.163Z,100165.56
2022-08-17T03:51:59.105Z,100168.94
2022-08-17T03:54:43.863Z,100163.44
2022-08-17T03:57:11.094Z,100171.00
2022-08-17T03:59:38.636Z,100174.63
2022-08-17T04:02:27.600Z,100178.75
2022-08-17T04:04:54.590Z,100179.38
2022-08-17T04:07:23.736Z,100177.16
2022-08-17T04:09:50.720Z,100180.97
2022-08-17T04:12:19.526Z,100185.09
2022-08-17T04:14:52.162Z,100179.13
2022-08-17T04:17:26.977Z,100176.38
2022-08-17T04:19:54.801Z,100185.19
2022-08-17T04:22:32.656Z,100184.03
2022-08-17T04:25:17.715Z,100188.09
2022-08-17T04:27:44.279Z,100198.63
2022-08-17T04:30:11.910Z,100196.94
2022-08-17T04:33:06.131Z,100192.94
2022-08-17T04:35:46.244Z,100203.19
2022-08-17T04:38:17.492Z,100196.84
2022-08-17T04:41:04.036Z,100199.19
2022-08-17T04:43:32.554Z,100195.88
2022-08-17T04:46:02.157Z,100204.09
2022-08-17T04:48:36.574Z,100205.50
2022-08-17T04:51:13.617Z,100202.00
2022-08-17T04:53:44.108Z,100204.00
2022-08-17T04:56:16.577Z,100205.28
2022-08-17T04:58:50.338Z,100199.94
2022-08-17T05:01:24.090Z,100197.81
2022-08-17T05:03:53.834Z,100201.34
2022-08-17T05:06:20.968Z,100198.66
2022-08-17T05:08:47.632Z,100198.66
2022-08-17T05:11:14.926Z,100201.03
2022-08-17T05:13:41.457Z,100206.25
2022-08-17T05:16:09.091Z,100197.88
2022-08-17T05:18:37.165Z,100201.03
2022-08-17T05:21:03.787Z,100208.91
2022-08-17T05:23:41.769Z,100205.03
2022-08-17T05:26:26.457Z,100207.06
2022-08-17T05:29:02.478Z,100208.56
2022-08-17T05:31:30.748Z,100206.31
2022-08-17T05:33:58.153Z,100208.34
2022-08-17T05:36:42.080Z,100206.22
2022-08-17T05:39:16.725Z,100198.97
2022-08-17T05:41:45.408Z,100191.44
2022-08-17T05:44:11.905Z,100198.56
2022-08-17T05:46:43.416Z,100208.13
2022-08-17T05:49:22.476Z,100208.97
2022-08-17T05:52:04.187Z,100202.63
2022-08-17T05:54:57.046Z,100196.00
2022-08-17T05:57:56.267Z,100198.00
2022-08-17T06:00:31.381Z,100188.22
2022-08-17T06:03:02.738Z,100188.03
2022-08-17T06:05:38.313Z,100189.38
2022-08-17T06:08:10.980Z,100194.72
2022-08-17T06:11:02.580Z,100220.59
2022-08-17T06:13:53.337Z,100229.97
2022-08-17T06:16:34.066Z,100205.34
2022-08-17T06:19:12.071Z,100231.34
2022-08-17T06:21:43.550Z,100229.22
2022-08-17T06:24:35.878Z,100219.00
2022-08-17T06:27:20.284Z,100243.38
2022-08-17T06:29:46.745Z,100228.69
2022-08-17T06:32:14.327Z,100250.66
2022-08-17T06:34:43.618Z,100234.31
2022-08-17T06:37:10.127Z,100237.53
2022-08-17T06:40:01.515Z,100243.47
2022-08-17T06:42:54.982Z,100250.28
2022-08-17T06:45:35.927Z,100252.63
2022-08-17T06:48:12.888Z,100256.78
2022-08-17T06:50:46.533Z,100253.69
2022-08-17T06:53:23.411Z,100266.78
2022-08-17T06:56:06.149Z,100265.50
2022-08-17T06:58:35.625Z,100261.75
2022-08-17T07:01:09.141Z,100263.22
2022-08-17T07:03:46.066Z,100267.38
2022-08-17T07:06:19.792Z,100275.13
2022-08-17T07:49:56.800Z,100290.56
2022-08-17T07:52:51.439Z,100291.41
2022-08-17T07:55:31.076Z,100286.06
2022-08-17T07:57:59.457Z,100283.41
2022-08-17T08:00:32.102Z,100284.25
2022-08-17T08:03:19.176Z,100306.31
2022-08-17T08:05:57.565Z,100302.81
2022-08-17T08:08:37.333Z,100312.63
2022-08-17T08:11:17.788Z,100300.13
2022-08-17T08:13:45.647Z,100305.47
2022-08-17T08:16:15.138Z,100313.34
2022-08-17T08:18:55.842Z,100319.22
2022-08-17T08:21:29.174Z,100320.69
2022-08-17T08:24:00.320Z,100324.84
2022-08-17T08:26:32.563Z,100326.41
2022-08-17T08:29:23.651Z,100311.03
2022-08-17T08:31:53.366Z,100315.88
2022-08-17T08:35:00.940Z,100317.69
2022-08-17T08:37:57.706Z,100328.50
2022-08-17T08:41:11.917Z,100328.50
2022-08-17T08:44:17.080Z,100330.56
2022-08-17T08:46:59.870Z,100333.34
2022-08-17T08:50:05.046Z,100334.53
2022-08-17T08:52:50.373Z,100330.19
2022-08-17T08:55:26.045Z,100323.34
2022-08-17T08:58:42.019Z,100324.22
2022-08-17T09:01:39.372Z,100310.97
2022-08-17T09:04:50.198Z,100310.00
2022-08-17T09:07:50.355Z,100310.97
2022-08-17T09:10:30.593Z,100306.38
2022-08-17T09:13:28.676Z,100313.56
2022-08-17T09:16:19.570Z,100311.72
2022-08-17T09:19:00.123Z,100307.44
2022-08-17T09:21:54.474Z,100310.00
2022-08-17T09:24:48.888Z,100317.06
2022-08-17T09:27:19.575Z,100306.38
2022-08-17T09:29:50.322Z,100313.44
2022-08-17T09:32:25.408Z,100319.50
2022-08-17T09:34:59.949Z,100306.03
2022-08-17T09:37:29.453Z,100315.72
2022-08-17T09:40:14.165Z,100313.06
2022-08-17T09:43:12.596Z,100320.34
2022-08-17T09:45:57.103Z,100324.84
2022-08-17T09:48:35.750Z,100325.81
2022-08-17T09:51:24.439Z,100328.47
2022-08-17T09:53:51.471Z,100324.84
2022-08-17T09:57:06.029Z,100329.94
2022-08-17T09:59:54.976Z,100334.66
2022-08-17T10:02:43.276Z,100341.09
2022-08-17T10:05:18.023Z,100336.09
2022-08-17T10:07:57.351Z,100337.06
2022-08-17T10:10:39.910Z,100338.88
2022-08-17T10:13:39.505Z,100360.47
2022-08-17T10:16:38.224Z,100357.88
2022-08-17T10:19:30.669Z,100366.03
2022-08-17T10:22:35.064Z,100364.31
2022-08-17T10:25:24.864Z,100362.63
2022-08-17T10:28:05.101Z,100362.84
2022-08-17T10:30:34.951Z,100359.44
2022-08-17T10:33:15.908Z,100361.38
2022-08-17T10:35:57.496Z,100368.63
2022-08-17T10:38:30.265Z,100367.91
2022-08-17T10:40:59.587Z,100369.09
2022-08-17T10:44:37.505Z,100359.38
2022-08-17T10:47:01.416Z,100338.25
2022-08-17T10:49:39.188Z,100331.69
2022-08-17T10:52:20.616Z,100340.00
2022-08-17T10:54:57.933Z,100333.81
2022-08-17T10:57:31.718Z,100336.38
2022-08-17T11:00:00.402Z,100323.66
2022-08-17T11:02:40.647Z,100320.88
2022-08-17T11:05:44.071Z,100319.06
2022-08-17T11:08:32.556Z,100320.03
2022-08-17T11:11:38.402Z,100312.75
2022-08-17T11:14:42.589Z,100326.75
2022-08-17T11:17:21.773Z,100326.38
2022-08-17T11:20:00.476Z,100333.72
2022-08-17T11:23:04.530Z,100335.69
2022-08-17T11:25:50.901Z,100348.88
2022-08-17T11:28:19.682Z,100347.25
2022-08-17T11:30:54.968Z,100346.34
2022-08-17T11:33:34.045Z,100343.22
2022-08-17T11:36:18.153Z,100335.41
2022-08-17T11:38:52.448Z,100333.75
2022-08-17T11:41:27.366Z,100342.03
2022-08-17T11:44:31.100Z,100341.06
2022-08-17T11:47:28.369Z,100341.53
2022-08-17T11:50:45.305Z,100350.31
2022-08-17T11:53:39.567Z,100361.72
2022-08-17T11:56:28.964Z,100351.75
2022-08-17T11:58:56.333Z,100341.78
2022-08-17T12:01:22.718Z,100349.94
2022-08-17T12:03:58.838Z,100345.44
2022-08-17T12:06:30.520Z,100347.84
2022-08-17T12:09:10.480Z,100352.75
2022-08-17T12:12:12.554Z,100355.31
2022-08-17T12:15:09.459Z,100366.84
2022-08-17T12:17:40.794Z,100364.94
2022-08-17T12:20:39.986Z,100367.94
2022-08-17T12:23:25.576Z,100354.34
2022-08-17T12:26:07.206Z,100361.13
2022-08-17T12:28:38.702Z,100368.06
2022-08-17T12:31:21.994Z,100362.22
2022-08-17T12:33:49.966Z,100358.34
2022-08-17T12:36:25.207Z,100358.81
2022-08-17T12:39:13.697Z,100354.66
2022-08-17T12:41:47.507Z,100353.63
2022-08-17T12:44:29.272Z,100355.53
2022-08-17T12:47:21.825Z,100356.72
2022-08-17T12:49:52.219Z,100359.97
2022-08-17T12:52:32.791Z,100364.25
2022-08-17T12:55:06.883Z,100347.00
2022-08-17T12:57:43.768Z,100348.66
2022-08-17T13:00:37.949Z,100351.34
2022-08-17T13:03:07.730Z,100343.53
2022-08-17T13:05:53.582Z,100356.34
2022-08-17T13:08:26.053Z,100358.31
2022-08-17T13:11:02.896Z,100348.59
2022-08-17T13:13:32.627Z,100352.03
2022-08-17T13:16:03.069Z,100359.91
2022-08-17T13:18:46.561Z,100356.88
2022-08-17T13:21:19.390Z,100351.63
2022-08-17T13:24:04.255Z,100354.50
2022-08-17T13:26:35.644Z,100363.16
2022-08-17T13:29:06.243Z,100364.38
2022-08-17T13:31:51.976Z,100370.81
2022-08-17T13:34:25.459Z,100361.22
2022-08-17T13:37:19.027Z,100365.63
2022-08-17T13:39:48.288Z,100371.66
2022-08-17T13:42:33.520Z,100368.06
2022-08-17T13:45:36.483Z,100370.53
2022-08-17T13:48:23.974Z,100380.00
2022-08-17T13:50:56.684Z,100380.06
2022-08-17T13:53:28.250Z,100378.16
2022-08-17T13:56:33.489Z,100382.25
2022-08-17T13:59:04.492Z,100375.84
2022-08-17T14:01:39.407Z,100378.22
2022-08-17T14:04:09.258Z,100381.25
2022-08-17T14:06:54.128Z,100377.22
2022-08-17T14:09:26.167Z,100374.47
2022-08-17T14:11:55.424Z,100388.09
2022-08-17T14:14:23.239Z,100385.13
2022-08-17T14:16:51.190Z,100383.59
2022-08-17T14:19:18.118Z,100374.19
2022-08-17T14:21:46.449Z,100366.88
2022-08-17T14:24:20.175Z,100361.41
2022-08-17T14:26:46.794Z,100366.22
2022-08-17T14:29:15.579Z,100359.38
2022-08-17T14:31:42.455Z,100355.84
2022-08-17T14:34:15.425Z,100359.78
2022-08-17T14:36:48.286Z,100365.38
2022-08-17T14:39:16.884Z,100351.38
2022-08-17T14:41:43.647Z,100357.47
2022-08-17T14:44:13.445Z,100357.00
2022-08-17T14:46:41.742Z,100357.97
2022-08-17T14:49:11.809Z,100350.19
2022-08-17T14:51:43.515Z,100359.78
2022-08-17T14:54:11.491Z,100349.66
2022-08-17T14:57:23.234Z,100354.06
2022-08-17T14:59:44.776Z,100356.97
2022-08-17T15:02:11.905Z,100352.47
2022-08-17T15:04:43.413Z,100347.69
2022-08-17T15:07:12.144Z,100337.38
2022-08-17T15:09:39.027Z,100339.94
2022-08-17T15:12:06.679Z,100340.31
2022-08-17T15:14:36.540Z,100336.91
2022-08-17T15:17:03.933Z,100332.88
2022-08-17T15:19:30.539Z,100336.75
2022-08-17T15:21:57.128Z,100336.13
2022-08-17T15:24:23.601Z,100326.03
2022-08-17T15:26:50.146Z,100321.78
2022-08-17T15:29:16.642Z,100320.22
2022-08-17T15:31:43.276Z,100320.13
2022-08-17T15:34:09.805Z,100321.94
2022-08-17T15:36:37.013Z,100318.69
2022-08-17T15:39:05.387Z,100311.72
2022-08-17T15:41:32.467Z,100319.88
2022-08-17T15:43:59.035Z,100314.28
2022-08-17T15:46:26.493Z,100310.34
2022-08-17T15:48:58.959Z,100305.81
2022-08-17T15:51:34.768Z,100304.91
2022-08-17T15:54:18.750Z,100312.78
2022-08-17T15:56:48.766Z,100303.97
2022-08-17T15:59:15.384Z,100306.59
2022-08-17T16:03:13.251Z,100306.78
2022-08-17T16:04:30.675Z,100310.19
2022-08-17T16:06:58.752Z,100306.72
2022-08-17T16:09:25.258Z,100312.13
2022-08-17T16:11:51.903Z,100316.34
2022-08-17T16:14:22.339Z,100329.50
2022-08-17T16:16:50.606Z,100336.06
2022-08-17T16:19:17.086Z,100338.19
2022-08-17T16:21:43.627Z,100337.56
2022-08-17T16:24:13.718Z,100341.06
2022-08-17T16:26:42.425Z,100343.22
2022-08-17T16:29:09.042Z,100347.22
2022-08-17T16:31:37.535Z,100342.69
2022-08-17T16:34:17.411Z,100343.09
2022-08-17T16:36:54.996Z,100353.69
2022-08-17T16:39:29.022Z,100355.50
2022-08-17T16:41:56.514Z,100351.44
2022-08-17T16:44:24.026Z,100350.28
2022-08-17T16:46:50.709Z,100341.94
2022-08-17T16:49:35.315Z,100349.25
2022-08-17T16:52:03.912Z,100346.94
2022-08-17T16:54:30.404Z,100354.06
2022-08-17T16:56:56.980Z,100343.13
2022-08-17T16:59:30.866Z,100344.44
2022-08-17T17:02:04.747Z,100350.31
2022-08-17T17:04:35.153Z,100338.53
2022-08-17T17:07:42.656Z,100336.84
2022-08-17T17:10:22.983Z,100337.09
2022-08-17T17:13:03.781Z,100330.56
2022-08-17T17:15:47.217Z,100338.59
2022-08-17T17:18:15.730Z,100350.91
2022-08-17T17:20:58.731Z,100353.22
2022-08-17T17:23:48.285Z,100348.84
2022-08-17T17:26:34.258Z,100362.69
2022-08-17T17:29:05.126Z,100364.50
2022-08-17T17:31:50.962Z,100358.88
2022-08-17T17:34:18.404Z,100369.16
2022-08-17T17:36:52.043Z,100367.41
2022-08-17T17:39:44.152Z,100355.00
2022-08-17T17:42:16.625Z,100358.66
2022-08-17T17:45:03.912Z,100363.91
2022-08-17T17:47:31.767Z,100365.25
2022-08-17T17:50:01.353Z,100366.72
2022-08-17T17:52:46.256Z,100374.63
2022-08-17T17:55:15.658Z,100371.22
2022-08-17T17:58:24.425Z,100380.97
2022-08-17T18:01:09.683Z,100379.75
2022-08-17T18:03:42.038Z,100385.34
2022-08-17T18:06:10.323Z,100390.81
2022-08-17T18:09:03.658Z,100385.69
2022-08-17T18:11:54.139Z,100388.38
2022-08-17T18:14:35.484Z,100389.47
2022-08-17T18:17:02.241Z,100387.66
2022-08-17T18:19:30.874Z,100386.56
2022-08-17T18:22:13.132Z,100377.69
2022-08-17T18:24:44.798Z,100373.19
2022-08-17T18:27:23.356Z,100377.31
2022-08-17T18:29:53.387Z,100378.31
2022-08-17T18:32:34.495Z,100375.72
2022-08-17T18:35:16.278Z,100381.19
2022-08-17T18:37:51.440Z,100389.00
2022-08-17T18:40:18.514Z,100399.78
2022-08-17T18:42:56.029Z,100406.56
2022-08-17T18:45:42.508Z,100405.22
2022-08-17T18:48:27.520Z,100413.19
2022-08-17T18:51:01.243Z,100414.16
2022-08-17T18:53:34.497Z,100419.28
2022-08-17T18:56:40.965Z,100429.22
2022-08-17T18:59:23.614Z,100421.03
2022-08-17T19:01:59.199Z,100431.97
2022-08-17T19:04:32.778Z,100437.56
2022-08-17T19:07:04.405Z,100438.41
2022-08-17T19:09:36.024Z,100438.50
2022-08-17T19:12:08.109Z,100450.41
2022-08-17T19:14:35.816Z,100453.41
2022-08-17T19:17:30.183Z,100457.28
2022-08-17T19:20:17.588Z,100461.50
2022-08-17T19:22:46.987Z,100461.81
2022-08-17T19:25:23.156Z,100459.25
2022-08-17T19:28:03.007Z,100456.69
2022-08-17T19:30:30.278Z,100456.19
2022-08-17T19:32:58.367Z,100457.72
2022-08-17T19:35:34.115Z,100454.84
2022-08-17T19:38:18.939Z,100452.53
2022-08-17T19:41:00.675Z,100448.22
2022-08-17T19:43:55.546Z,100455.84
2022-08-17T19:46:26.089Z,100454.84
2022-08-17T19:49:03.566Z,100453.34
2022-08-17T19:51:46.175Z,100453.66
2022-08-17T19:54:25.523Z,100457.53
2022-08-17T19:57:01.698Z,100457.06
2022-08-17T19:59:51.397Z,100461.16
2022-08-17T20:02:37.458Z,100468.47
2022-08-17T20:05:18.932Z,100469.13
2022-08-17T20:08:00.572Z,100478.84
2022-08-17T20:10:38.554Z,100473.28
2022-08-17T20:13:14.990Z,100466.69
2022-08-17T20:15:43.810Z,100471.59
2022-08-17T20:18:50.796Z,100480.13
2022-08-17T20:21:39.131Z,100476.38
2022-08-17T20:24:44.758Z,100479.16
2022-08-17T20:27:47.215Z,100486.31
2022-08-17T20:30:40.779Z,100463.69
2022-08-17T20:33:23.232Z,100465.13
2022-08-17T20:36:11.912Z,100472.28
2022-08-17T20:38:46.361Z,100483.16
2022-08-17T20:41:17.131Z,100478.97
2022-08-17T20:43:50.914Z,100478.91
2022-08-17T20:46:35.607Z,100484.47
2022-08-17T20:49:08.267Z,100496.59
2022-08-17T20:52:02.537Z,100484.81
2022-08-17T20:54:38.536Z,100492.81
2022-08-17T20:57:13.723Z,100489.19
2022-08-17T20:59:43.461Z,100493.19
2022-08-17T21:02:19.943Z,100493.91
2022-08-17T21:04:47.261Z,100487.63
2022-08-17T21:07:48.550Z,100488.25
2022-08-17T21:10:26.057Z,100489.34
2022-08-17T21:13:00.115Z,100493.91
2022-08-17T21:15:42.915Z,100488.72
2022-08-17T21:18:27.985Z,100502.19
2022-08-17T21:21:16.954Z,100496.00
2022-08-17T21:23:52.892Z,100498.13
2022-08-17T21:27:18.108Z,100496.22
2022-08-17T21:30:10.129Z,100493.94
2022-08-17T21:32:40.397Z,100494.69
2022-08-17T21:35:12.344Z,100491.59
2022-08-17T21:37:39.135Z,100494.06
2022-08-17T21:40:17.975Z,100495.28
2022-08-17T21:43:20.028Z,100499.84
2022-08-17T21:45:55.698Z,100497.94
2022-08-17T21:48:24.961Z,100504.28
2022-08-17T21:51:03.713Z,100494.53
2022-08-17T21:53:39.305Z,100498.91
2022-08-17T21:56:07.254Z,100503.63
2022-08-17T21:58:40.004Z,100500.50
2022-08-17T22:01:17.195Z,100507.53
2022-08-17T22:03:46.869Z,100506.88
2022-08-17T22:06:56.658Z,100504.78
2022-08-17T22:09:32.747Z,100509.63
2022-08-17T22:12:05.310Z,100508.13
2022-08-17T22:14:53.118Z,100506.56
2022-08-17T22:17:25.050Z,100520.06
2022-08-17T22:20:14.428Z,100518.16
2022-08-17T22:23:08.573Z,100519.88
2022-08-17T22:25:38.156Z,100531.25
2022-08-17T22:28:08.186Z,100527.00
2022-08-17T22:30:41.085Z,100526.63
2022-08-17T22:33:36.416Z,100518.44
2022-08-17T22:36:24.673Z,100508.84
2022-08-17T22:38:58.131Z,100518.59
2022-08-17T22:41:24.555Z,100512.97
2022-08-17T22:43:52.415Z,100510.03
2022-08-17T22:46:23.818Z,100512.69
2022-08-17T22:48:54.925Z,100520.72
2022-08-17T22:51:26.215Z,100519.41
2022-08-17T22:54:15.313Z,100521.44
2022-08-17T22:57:18.617Z,100511.72
2022-08-17T22:59:49.342Z,100517.28
2022-08-17T23:02:23.867Z,100523.50
2022-08-17T23:04:54.347Z,100514.38
2022-08-17T23:07:22.853Z,100522.53
2022-08-17T23:09:51.047Z,100526.44
2022-08-17T23:12:26.316Z,100529.44
2022-08-17T23:15:00.488Z,100536.47
2022-08-17T23:17:37.197Z,100533.09
2022-08-17T23:20:08.399Z,100531.63
2022-08-17T23:22:37.942Z,100540.84
2022-08-17T23:25:27.043Z,100534.16
2022-08-17T23:27:54.440Z,100524.09
2022-08-17T23:30:28.505Z,100524.88
2022-08-17T23:32:56.513Z,100525.09
2022-08-17T23:35:39.683Z,100534.28
2022-08-17T23:38:09.463Z,100544.84
2022-08-17T23:40:36.248Z,100534.91
2022-08-17T23:43:11.509Z,100542.03
2022-08-17T23:45:59.589Z,100540.06
2022-08-17T23:59:48.715Z,100537.88
